To NAV CANADA Home Page Login to a new session Search on AWWS site Disclaimer Vers la page française équivalente Tips FAQ What's new on the site To the Forecasts and Observations / NOTAM section To "File a Flight Plan" website Publications and other links Update of the User's profile FIC Telephone Numbers My Weather Data Folder Route Weather Data Regional Weather Data Local Weather Data To the Forecasts and Observations / NOTAM section
Request Generated 01/22/2019 at 02:21:59 UTC . Weather information available at that time is displayed.

METAR/TAF

KITCHENER/WATERLOO/ON    (show WxCam)

METAR CYKF 220200Z AUTO 30005KT 9SM CLR M16/M18 A3049 RMK SLP358=
METAR CYKF 220100Z AUTO 30005KT 9SM CLR M16/M18 A3047 RMK SLP352=
METAR CYKF 220000Z AUTO 26004KT 9SM CLR M15/M17 A3047 RMK SLP352=

TAF CYKF 220138Z 2202/2214 VRB03KT P6SM SKC
FM221300 11005KT P6SM BKN120 OVC200
RMK FCST BASED ON AUTO OBS. NXT FCST BY 220800Z=

LONDON/ON    

METAR CYXU 220200Z 00000KT 15SM FEW030 M17/M19 A3052 RMK SC1 SC TR SLP365=
METAR CYXU 220100Z VRB02KT 15SM FEW030 M16/M18 A3052 RMK SC1 SC TR SLP363=
METAR CYXU 220000Z 27004KT 15SM FEW030 M15/M17 A3051 RMK SC1 SLP360=

TAF CYXU 212338Z 2200/2224 26007KT P6SM SCT025 TEMPO 2200/2203 BKN020
BECMG 2201/2203 VRB03KT
FM221100 09005KT P6SM BKN120 OVC200
FM221400 13010KT P6SM OVC100
BECMG 2216/2217 14012G22KT
FM222000 16012G22KT P6SM SCT140 BKN220
BECMG 2223/2224 18010KT
RMK NXT FCST BY 220600Z=

HAMILTON/ON    

METAR CYHM 220200Z 27007KT 15SM FEW018 M17/M19 A3053 RMK SC1 SC TR SLP363=
METAR CYHM 220100Z 26007KT 15SM FEW018 M16/M18 A3051 RMK SC1 SC TR SLP356=
METAR CYHM 220000Z 27007KT 15SM FEW018 M15/M18 A3049 RMK SC1 SC TR SLP351=

TAF CYHM 212338Z 2200/2224 28008KT P6SM FEW020
FM220600 26006KT P6SM FEW180 SCT250
BECMG 2208/2209 VRB03KT
FM221300 07005KT P6SM BKN120 OVC200
FM221700 08010KT P6SM OVC100
FM222200 09010KT P6SM SCT140 BKN220
RMK NXT FCST BY 220600Z=
Your time UTC time
Weather data provided by Environment Canada and NAV CANADA